sensor_id;sensor_type;location;lat;lon;timestamp;temperature;humidity
70214;DHT22;60138;55.808;37.078;2023-03-14T00:02:17;-4.15;80.95
70214;DHT22;60138;55.808;37.078;2023-03-14T00:04:43;-4.14;81.00
70214;DHT22;60138;55.808;37.078;2023-03-14T00:07:11;-4.11;81.03
70214;DHT22;60138;55.808;37.078;2023-03-14T00:09:36;-4.08;81.10
70214;DHT22;60138;55.808;37.078;2023-03-14T00:12:02;-4.02;81.17
70214;DHT22;60138;55.808;37.078;2023-03-14T00:14:29;-3.97;81.28
70214;DHT22;60138;55.808;37.078;2023-03-14T00:16:55;-3.93;81.32
70214;DHT22;60138;55.808;37.078;2023-03-14T00:19:20;-3.89;81.36
70214;DHT22;60138;55.808;37.078;2023-03-14T00:21:46;-3.85;81.43
70214;DHT22;60138;55.808;37.078;2023-03-14T00:24:12;-3.81;81.47
70214;DHT22;60138;55.808;37.078;2023-03-14T00:26:38;-3.76;81.55
70214;DHT22;60138;55.808;37.078;2023-03-14T00:29:05;-3.74;81.58
70214;DHT22;60138;55.808;37.078;2023-03-14T00:31:31;-3.70;81.60
70214;DHT22;60138;55.808;37.078;2023-03-14T00:33:56;-3.65;81.65
70214;DHT22;60138;55.808;37.078;2023-03-14T00:36:23;-3.62;81.72
70214;DHT22;60138;55.808;37.078;2023-03-14T00:38:50;-3.55;81.81
70214;DHT22;60138;55.808;37.078;2023-03-14T00:41:18;-3.50;81.88
70214;DHT22;60138;55.808;37.078;2023-03-14T00:43:45;-3.42;81.94
70214;DHT22;60138;55.808;37.078;2023-03-14T00:46:11;-3.36;82.00
70214;DHT22;60138;55.808;37.078;2023-03-14T00:48:38;-3.33;82.03
70214;DHT22;60138;55.808;37.078;2023-03-14T00:51:05;-3.28;82.07
70214;DHT22;60138;55.808;37.078;2023-03-14T00:53:32;-3.24;82.10
70214;DHT22;60138;55.808;37.078;2023-03-14T00:56:06;-3.22;82.12
70214;DHT22;60138;55.808;37.078;2023-03-14T00:58:32;-3.16;82.19
70214;DHT22;60138;55.808;37.078;2023-03-14T01:00:58;-3.11;82.20
70214;DHT22;60138;55.808;37.078;2023-03-14T01:03:24;-3.07;82.24
70214;DHT22;60138;55.808;37.078;2023-03-14T01:05:50;-3.03;82.29
70214;DHT22;60138;55.808;37.078;2023-03-14T01:08:16;-3.00;82.32
70214;DHT22;60138;55.808;37.078;2023-03-14T01:10:42;-2.94;82.36
70214;DHT22;60138;55.808;37.078;2023-03-14T01:13:08;-2.91;82.39
70214;DHT22;60138;55.808;37.078;2023-03-14T01:15:36;-2.89;82.42
70214;DHT22;60138;55.808;37.078;2023-03-14T01:18:03;-2.87;82.44
70214;DHT22;60138;55.808;37.078;2023-03-14T01:20:28;-2.86;82.43
70214;DHT22;60138;55.808;37.078;2023-03-14T01:22:54;-2.84;82.47
70214;DHT22;60138;55.808;37.078;2023-03-14T01:25:20;-2.83;82.46
70214;DHT22;60138;55.808;37.078;2023-03-14T01:27:46;-2.81;82.52
70214;DHT22;60138;55.808;37.078;2023-03-14T01:30:13;-2.79;82.53
70214;DHT22;60138;55.808;37.078;2023-03-14T01:32:39;-2.76;82.57
70214;DHT22;60138;55.808;37.078;2023-03-14T01:35:05;-2.74;82.58
70214;DHT22;60138;55.808;37.078;2023-03-14T01:37:31;-2.71;82.65
70214;DHT22;60138;55.808;37.078;2023-03-14T01:39:57;-2.66;82.66
70214;DHT22;60138;55.808;37.078;2023-03-14T01:42:23;-2.63;82.70
70214;DHT22;60138;55.808;37.078;2023-03-14T01:44:55;-2.59;82.75
70214;DHT22;60138;55.808;37.078;2023-03-14T01:47:22;-2.56;82.76
70214;DHT22;60138;55.808;37.078;2023-03-14T01:52:37;-2.49;82.88
70214;DHT22;60138;55.808;37.078;2023-03-14T01:55:07;-2.45;82.94
70214;DHT22;60138;55.808;37.078;2023-03-14T02:01:28;-2.31;83.11
70214;DHT22;60138;55.808;37.078;2023-03-14T02:03:56;-2.29;83.23
70214;DHT22;60138;55.808;37.078;2023-03-14T02:06:39;-2.21;83.33
70214;DHT22;60138;55.808;37.078;2023-03-14T02:09:06;-2.17;83.35
70214;DHT22;60138;55.808;37.078;2023-03-14T02:11:34;-2.12;83.43
70214;DHT22;60138;55.808;37.078;2023-03-14T02:14:33;-2.05;83.51
70214;DHT22;60138;55.808;37.078;2023-03-14T02:17:23;-2.01;83.56
70214;DHT22;60138;55.808;37.078;2023-03-14T02:22:40;-1.95;83.64
70214;DHT22;60138;55.808;37.078;2023-03-14T02:27:34;-1.90;83.73
70214;DHT22;60138;55.808;37.078;2023-03-14T02:30:04;-1.86;83.72
70214;DHT22;60138;55.808;37.078;2023-03-14T02:32:34;-1.82;83.83
70214;DHT22;60138;55.808;37.078;2023-03-14T02:35:08;-1.77;83.80
70214;DHT22;60138;55.808;37.078;2023-03-14T02:37:47;-1.74;83.81
70214;DHT22;60138;55.808;37.078;2023-03-14T02:40:14;-1.71;83.84
70214;DHT22;60138;55.808;37.078;2023-03-14T02:42:41;-1.68;83.82
70214;DHT22;60138;55.808;37.078;2023-03-14T02:47:37;-1.61;83.82
70214;DHT22;60138;55.808;37.078;2023-03-14T02:50:12;-1.59;83.84
70214;DHT22;60138;55.808;37.078;2023-03-14T02:52:39;-1.55;83.80
70214;DHT22;60138;55.808;37.078;2023-03-14T02:55:07;-1.52;83.85
70214;DHT22;60138;55.808;37.078;2023-03-14T02:57:34;-1.48;83.87
70214;DHT22;60138;55.808;37.078;2023-03-14T03:00:01;-1.46;83.85
70214;DHT22;60138;55.808;37.078;2023-03-14T03:02:31;-1.42;83.88
70214;DHT22;60138;55.808;37.078;2023-03-14T03:04:57;-1.40;83.90
70214;DHT22;60138;55.808;37.078;2023-03-14T03:07:23;-1.36;83.89
70214;DHT22;60138;55.808;37.078;2023-03-14T03:09:49;-1.34;83.89
70214;DHT22;60138;55.808;37.078;2023-03-14T03:12:15;-1.32;83.97
70214;DHT22;60138;55.808;37.078;2023-03-14T03:14:41;-1.28;83.97
70214;DHT22;60138;55.808;37.078;2023-03-14T03:17:07;-1.25;84.01
70214;DHT22;60138;55.808;37.078;2023-03-14T03:19:34;-1.21;84.05
70214;DHT22;60138;55.808;37.078;2023-03-14T03:21:59;-1.19;84.03
70214;DHT22;60138;55.808;37.078;2023-03-14T03:24:26;-1.16;84.05
70214;DHT22;60138;55.808;37.078;2023-03-14T03:26:54;-1.13;84.07
70214;DHT22;60138;55.808;37.078;2023-03-14T03:29:19;-1.09;84.06
70214;DHT22;60138;55.808;37.078;2023-03-14T03:31:45;-1.09;84.17
70214;DHT22;60138;55.808;37.078;2023-03-14T03:34:13;-1.05;84.23
70214;DHT22;60138;55.808;37.078;2023-03-14T03:36:39;-1.02;84.24
70214;DHT22;60138;55.808;37.078;2023-03-14T03:39:05;-0.99;84.22
70214;DHT22;60138;55.808;37.078;2023-03-14T03:41:32;-0.97;84.23
70214;DHT22;60138;55.808;37.078;2023-03-14T03:43:58;-0.94;84.23
70214;DHT22;60138;55.808;37.078;2023-03-14T03:46:25;-0.93;84.24
70214;DHT22;60138;55.808;37.078;2023-03-14T03:48:55;-0.87;84.32
70214;DHT22;60138;55.808;37.078;2023-03-14T03:51:21;-0.85;84.30
70214;DHT22;60138;55.808;37.078;2023-03-14T03:53:47;-0.81;84.32
70214;DHT22;60138;55.808;37.078;2023-03-14T03:56:17;-0.81;84.29
70214;DHT22;60138;55.808;37.078;2023-03-14T03:58:44;-0.77;84.39
70214;DHT22;60138;55.808;37.078;2023-03-14T04:01:10;-0.76;84.35
70214;DHT22;60138;55.808;37.078;2023-03-14T04:03:35;-0.71;84.34
70214;DHT22;60138;55.808;37.078;2023-03-14T04:06:03;-0.70;84.38
70214;DHT22;60138;55.808;37.078;2023-03-14T04:08:30;-0.67;84.42
70214;DHT22;60138;55.808;37.078;2023-03-14T04:10:58;-0.64;84.43
70214;DHT22;60138;55.808;37.078;2023-03-14T04:13:38;-0.60;84.49
70214;DHT22;60138;55.808;37.078;2023-03-14T04:16:14;-0.58;84.54
70214;DHT22;60138;55.808;37.078;2023-03-14T04:18:40;-0.55;84.55
70214;DHT22;60138;55.808;37.078;2023-03-14T04:21:06;-0.52;84.53
70214;DHT22;60138;55.808;37.078;2023-03-14T04:23:42;-0.49;84.58
70214;DHT22;60138;55.808;37.078;2023-03-14T04:26:07;-0.44;84.61
70214;DHT22;60138;55.808;37.078;2023-03-14T04:28:33;-0.41;84.60
70214;DHT22;60138;55.808;37.078;2023-03-14T04:31:06;-0.37;84.70
70214;DHT22;60138;55.808;37.078;2023-03-14T04:33:33;-0.32;84.68
70214;DHT22;60138;55.808;37.078;2023-03-14T04:35:59;-0.31;84.74
70214;DHT22;60138;55.808;37.078;2023-03-14T04:38:24;-0.26;84.69
70214;DHT22;60138;55.808;37.078;2023-03-14T04:40:51;-0.23;84.73
70214;DHT22;60138;55.808;37.078;2023-03-14T04:43:18;-0.19;84.77
70214;DHT22;60138;55.808;37.078;2023-03-14T04:45:53;-0.15;84.80
70214;DHT22;60138;55.808;37.078;2023-03-14T04:48:20;-0.12;84.80
70214;DHT22;60138;55.808;37.078;2023-03-14T04:50:46;-0.08;84.84
70214;DHT22;60138;55.808;37.078;2023-03-14T04:53:14;-0.06;84.83
70214;DHT22;60138;55.808;37.078;2023-03-14T04:55:42;-0.01;84.85
70214;DHT22;60138;55.808;37.078;2023-03-14T04:58:08;-0.00;84.80
70214;DHT22;60138;55.808;37.078;2023-03-14T05:00:34;0.02;84.87
70214;DHT22;60138;55.808;37.078;2023-03-14T05:03:26;0.04;84.96
70214;DHT22;60138;55.808;37.078;2023-03-14T05:06:05;0.06;85.03
70214;DHT22;60138;55.808;37.078;2023-03-14T05:08:57;0.07;84.99
70214;DHT22;60138;55.808;37.078;2023-03-14T05:11:42;0.09;85.05
70214;DHT22;60138;55.808;37.078;2023-03-14T05:14:28;0.12;85.06
70214;DHT22;60138;55.808;37.078;2023-03-14T05:17:17;0.16;85.08
70214;DHT22;60138;55.808;37.078;2023-03-14T05:20:09;0.17;85.13
70214;DHT22;60138;55.808;37.078;2023-03-14T05:22:51;0.19;85.14
70214;DHT22;60138;55.808;37.078;2023-03-14T05:25:37;0.22;85.14
70214;DHT22;60138;55.808;37.078;2023-03-14T05:28:31;0.23;85.19
70214;DHT22;60138;55.808;37.078;2023-03-14T05:31:17;0.25;85.19
70214;DHT22;60138;55.808;37.078;2023-03-14T05:33:43;0.27;85.26
70214;DHT22;60138;55.808;37.078;2023-03-14T05:36:29;0.30;85.27
70214;DHT22;60138;55.808;37.078;2023-03-14T05:39:03;0.31;85.17
70214;DHT22;60138;55.808;37.078;2023-03-14T05:41:42;0.34;85.20
70214;DHT22;60138;55.808;37.078;2023-03-14T05:44:34;0.37;85.21
70214;DHT22;60138;55.808;37.078;2023-03-14T05:47:31;0.39;85.24
70214;DHT22;60138;55.808;37.078;2023-03-14T05:50:32;0.43;85.22
70214;DHT22;60138;55.808;37.078;2023-03-14T05:53:20;0.44;85.25
70214;DHT22;60138;55.808;37.078;2023-03-14T05:55:53;0.46;85.23
70214;DHT22;60138;55.808;37.078;2023-03-14T05:58:39;0.47;85.21
70214;DHT22;60138;55.808;37.078;2023-03-14T06:01:05;0.47;85.17
70214;DHT22;60138;55.808;37.078;2023-03-14T06:03:46;0.50;85.14
70214;DHT22;60138;55.808;37.078;2023-03-14T06:06:11;0.50;85.09
70214;DHT22;60138;55.808;37.078;2023-03-14T06:08:37;0.52;85.13
70214;DHT22;60138;55.808;37.078;2023-03-14T06:11:05;0.53;85.06
70214;DHT22;60138;55.808;37.078;2023-03-14T06:13:30;0.54;85.04
70214;DHT22;60138;55.808;37.078;2023-03-14T06:15:56;0.55;85.04
70214;DHT22;60138;55.808;37.078;2023-03-14T06:18:22;0.55;85.03
70214;DHT22;60138;55.808;37.078;2023-03-14T06:20:48;0.58;85.04
70214;DHT22;60138;55.808;37.078;2023-03-14T06:23:21;0.58;84.99
70214;DHT22;60138;55.808;37.078;2023-03-14T06:25:47;0.60;84.99
70214;DHT22;60138;55.808;37.078;2023-03-14T06:28:13;0.62;84.97
70214;DHT22;60138;55.808;37.078;2023-03-14T06:30:39;0.64;84.91
70214;DHT22;60138;55.808;37.078;2023-03-14T06:33:07;0.64;84.91
70214;DHT22;60138;55.808;37.078;2023-03-14T06:35:33;0.69;84.87
70214;DHT22;60138;55.808;37.078;2023-03-14T06:37:59;0.71;84.81
70214;DHT22;60138;55.808;37.078;2023-03-14T06:40:24;0.73;84.78
70214;DHT22;60138;55.808;37.078;2023-03-14T06:42:58;0.79;84.81
70214;DHT22;60138;55.808;37.078;2023-03-14T06:45:26;0.81;84.75
70214;DHT22;60138;55.808;37.078;2023-03-14T06:47:52;0.83;84.70
70214;DHT22;60138;55.808;37.078;2023-03-14T06:50:22;0.87;84.63
70214;DHT22;60138;55.808;37.078;2023-03-14T06:52:48;0.88;84.61
70214;DHT22;60138;55.808;37.078;2023-03-14T06:55:18;0.90;84.60
70214;DHT22;60138;55.808;37.078;2023-03-14T06:57:44;0.91;84.55
70214;DHT22;60138;55.808;37.078;2023-03-14T07:00:11;0.94;84.59
70214;DHT22;60138;55.808;37.078;2023-03-14T07:02:38;0.96;84.49
70214;DHT22;60138;55.808;37.078;2023-03-14T07:05:05;0.98;84.51
70214;DHT22;60138;55.808;37.078;2023-03-14T07:07:31;0.99;84.50
70214;DHT22;60138;55.808;37.078;2023-03-14T07:09:57;1.03;84.47
70214;DHT22;60138;55.808;37.078;2023-03-14T07:12:23;1.10;84.44
70214;DHT22;60138;55.808;37.078;2023-03-14T07:14:48;1.11;84.38
70214;DHT22;60138;55.808;37.078;2023-03-14T07:17:14;1.14;84.33
70214;DHT22;60138;55.808;37.078;2023-03-14T07:19:40;1.18;84.27
70214;DHT22;60138;55.808;37.078;2023-03-14T07:22:07;1.23;84.26
70214;DHT22;60138;55.808;37.078;2023-03-14T07:24:32;1.32;84.26
70214;DHT22;60138;55.808;37.078;2023-03-14T07:26:59;1.40;84.23
70214;DHT22;60138;55.808;37.078;2023-03-14T07:29:25;1.45;84.23
70214;DHT22;60138;55.808;37.078;2023-03-14T07:31:51;1.48;84.23
70214;DHT22;60138;55.808;37.078;2023-03-14T07:34:19;1.56;84.26
70214;DHT22;60138;55.808;37.078;2023-03-14T07:36:45;1.67;84.19
70214;DHT22;60138;55.808;37.078;2023-03-14T07:39:11;1.71;84.19
70214;DHT22;60138;55.808;37.078;2023-03-14T07:41:47;1.75;84.19
70214;DHT22;60138;55.808;37.078;2023-03-14T07:44:39;1.75;84.28
70214;DHT22;60138;55.808;37.078;2023-03-14T07:47:05;1.77;84.29
70214;DHT22;60138;55.808;37.078;2023-03-14T07:49:30;1.81;84.40
70214;DHT22;60138;55.808;37.078;2023-03-14T07:51:56;1.84;84.37
70214;DHT22;60138;55.808;37.078;2023-03-14T07:54:21;1.93;84.44
70214;DHT22;60138;55.808;37.078;2023-03-14T07:56:47;1.96;84.47
70214;DHT22;60138;55.808;37.078;2023-03-14T07:59:13;2.06;84.46
70214;DHT22;60138;55.808;37.078;2023-03-14T08:01:38;2.12;84.51
70214;DHT22;60138;55.808;37.078;2023-03-14T08:04:04;2.17;84.47
70214;DHT22;60138;55.808;37.078;2023-03-14T08:06:30;2.22;84.44
70214;DHT22;60138;55.808;37.078;2023-03-14T08:08:55;2.21;84.41
70214;DHT22;60138;55.808;37.078;2023-03-14T08:11:21;2.21;84.37
70214;DHT22;60138;55.808;37.078;2023-03-14T08:13:47;2.19;84.38
70214;DHT22;60138;55.808;37.078;2023-03-14T08:16:12;2.21;84.53
70214;DHT22;60138;55.808;37.078;2023-03-14T08:18:38;2.26;84.53
70214;DHT22;60138;55.808;37.078;2023-03-14T08:21:04;2.30;84.45
70214;DHT22;60138;55.808;37.078;2023-03-14T08:23:29;2.32;84.54
70214;DHT22;60138;55.808;37.078;2023-03-14T08:25:55;2.39;84.48
70214;DHT22;60138;55.808;37.078;2023-03-14T08:28:21;2.42;84.55
70214;DHT22;60138;55.808;37.078;2023-03-14T08:30:46;2.47;84.40
70214;DHT22;60138;55.808;37.078;2023-03-14T08:33:12;2.54;84.61
70214;DHT22;60138;55.808;37.078;2023-03-14T08:35:38;2.64;84.67
70214;DHT22;60138;55.808;37.078;2023-03-14T08:38:03;2.70;84.57
70214;DHT22;60138;55.808;37.078;2023-03-14T08:40:29;2.71;84.53
70214;DHT22;60138;55.808;37.078;2023-03-14T08:42:55;2.73;84.62
70214;DHT22;60138;55.808;37.078;2023-03-14T08:45:20;2.73;84.58
70214;DHT22;60138;55.808;37.078;2023-03-14T08:47:46;2.67;84.29
70214;DHT22;60138;55.808;37.078;2023-03-14T08:50:12;2.70;84.49
70214;DHT22;60138;55.808;37.078;2023-03-14T08:52:38;2.74;84.58
70214;DHT22;60138;55.808;37.078;2023-03-14T08:55:04;2.83;84.70
70214;DHT22;60138;55.808;37.078;2023-03-14T08:57:30;2.88;84.41
70214;DHT22;60138;55.808;37.078;2023-03-14T08:59:56;2.93;84.53
70214;DHT22;60138;55.808;37.078;2023-03-14T09:02:23;3.02;84.56
70214;DHT22;60138;55.808;37.078;2023-03-14T09:04:52;3.16;84.52
70214;DHT22;60138;55.808;37.078;2023-03-14T09:07:18;3.17;84.47
70214;DHT22;60138;55.808;37.078;2023-03-14T09:09:44;3.19;84.32
70214;DHT22;60138;55.808;37.078;2023-03-14T09:12:10;3.24;84.22
70214;DHT22;60138;55.808;37.078;2023-03-14T09:14:36;3.31;84.19
70214;DHT22;60138;55.808;37.078;2023-03-14T09:17:03;3.31;84.18
70214;DHT22;60138;55.808;37.078;2023-03-14T09:19:29;3.26;84.27
70214;DHT22;60138;55.808;37.078;2023-03-14T09:21:55;3.21;84.25
70214;DHT22;60138;55.808;37.078;2023-03-14T09:24:21;3.17;83.93
70214;DHT22;60138;55.808;37.078;2023-03-14T09:26:47;3.08;83.89
70214;DHT22;60138;55.808;37.078;2023-03-14T09:29:12;3.01;83.94
70214;DHT22;60138;55.808;37.078;2023-03-14T09:31:38;3.00;83.94
70214;DHT22;60138;55.808;37.078;2023-03-14T09:34:04;2.95;83.89
70214;DHT22;60138;55.808;37.078;2023-03-14T09:36:30;2.94;83.96
70214;DHT22;60138;55.808;37.078;2023-03-14T09:38:56;2.91;84.03
70214;DHT22;60138;55.808;37.078;2023-03-14T09:41:28;2.96;84.27
70214;DHT22;60138;55.808;37.078;2023-03-14T09:44:11;2.97;83.82
70214;DHT22;60138;55.808;37.078;2023-03-14T09:46:40;3.01;84.38
70214;DHT22;60138;55.808;37.078;2023-03-14T09:49:19;3.14;84.96
70214;DHT22;60138;55.808;37.078;2023-03-14T09:51:47;3.24;84.86
70214;DHT22;60138;55.808;37.078;2023-03-14T09:54:36;3.30;84.77
70214;DHT22;60138;55.808;37.078;2023-03-14T09:57:04;3.42;84.64
70214;DHT22;60138;55.808;37.078;2023-03-14T09:59:31;3.61;84.94
70214;DHT22;60138;55.808;37.078;2023-03-14T10:02:13;3.79;84.24
70214;DHT22;60138;55.808;37.078;2023-03-14T10:04:40;3.93;84.48
70214;DHT22;60138;55.808;37.078;2023-03-14T10:07:11;4.04;84.74
70214;DHT22;60138;55.808;37.078;2023-03-14T10:09:38;4.03;84.27
70214;DHT22;60138;55.808;37.078;2023-03-14T10:12:03;4.03;84.41
70214;DHT22;60138;55.808;37.078;2023-03-14T10:14:35;4.05;84.64
70214;DHT22;60138;55.808;37.078;2023-03-14T10:17:06;4.08;84.55
70214;DHT22;60138;55.808;37.078;2023-03-14T10:19:32;4.06;84.38
70214;DHT22;60138;55.808;37.078;2023-03-14T10:22:00;4.05;84.58
70214;DHT22;60138;55.808;37.078;2023-03-14T10:24:33;4.13;84.72
70214;DHT22;60138;55.808;37.078;2023-03-14T10:27:04;4.20;84.76
70214;DHT22;60138;55.808;37.078;2023-03-14T10:29:32;4.32;84.81
70214;DHT22;60138;55.808;37.078;2023-03-14T10:32:04;4.43;84.62
70214;DHT22;60138;55.808;37.078;2023-03-14T10:34:38;4.47;84.61
70214;DHT22;60138;55.808;37.078;2023-03-14T10:37:24;4.46;84.42
70214;DHT22;60138;55.808;37.078;2023-03-14T10:39:53;4.43;84.22
70214;DHT22;60138;55.808;37.078;2023-03-14T10:42:27;4.39;84.30
70214;DHT22;60138;55.808;37.078;2023-03-14T10:44:56;4.39;84.37
70214;DHT22;60138;55.808;37.078;2023-03-14T10:47:24;4.43;84.13
70214;DHT22;60138;55.808;37.078;2023-03-14T10:49:51;4.48;84.32
70214;DHT22;60138;55.808;37.078;2023-03-14T10:52:27;4.51;84.21
70214;DHT22;60138;55.808;37.078;2023-03-14T10:55:01;4.53;84.22
70214;DHT22;60138;55.808;37.078;2023-03-14T10:57:29;4.53;84.26
70214;DHT22;60138;55.808;37.078;2023-03-14T10:59:56;4.51;84.20
70214;DHT22;60138;55.808;37.078;2023-03-14T11:02:59;4.54;83.27
70214;DHT22;60138;55.808;37.078;2023-03-14T11:06:14;4.61;84.09
70214;DHT22;60138;55.808;37.078;2023-03-14T11:10:54;4.78;83.32
70214;DHT22;60138;55.808;37.078;2023-03-14T11:16:40;5.25;83.97
70214;DHT22;60138;55.808;37.078;2023-03-14T11:19:50;5.35;84.07
70214;DHT22;60138;55.808;37.078;2023-03-14T11:22:51;5.48;83.71
70214;DHT22;60138;55.808;37.078;2023-03-14T11:27:57;5.42;81.43
70214;DHT22;60138;55.808;37.078;2023-03-14T11:30:52;5.37;82.26
70214;DHT22;60138;55.808;37.078;2023-03-14T11:33:24;5.32;83.07
70214;DHT22;60138;55.808;37.078;2023-03-14T11:36:07;5.23;82.36
70214;DHT22;60138;55.808;37.078;2023-03-14T11:38:50;5.17;82.27
70214;DHT22;60138;55.808;37.078;2023-03-14T11:41:20;5.24;82.16
70214;DHT22;60138;55.808;37.078;2023-03-14T11:43:54;5.31;82.98
70214;DHT22;60138;55.808;37.078;2023-03-14T11:46:42;5.33;81.62
70214;DHT22;60138;55.808;37.078;2023-03-14T11:52:04;5.32;82.06
70214;DHT22;60138;55.808;37.078;2023-03-14T11:55:32;5.30;81.65
70214;DHT22;60138;55.808;37.078;2023-03-14T11:57:40;5.26;82.02
70214;DHT22;60138;55.808;37.078;2023-03-14T12:02:53;5.22;82.75
70214;DHT22;60138;55.808;37.078;2023-03-14T12:10:48;5.23;82.99
70214;DHT22;60138;55.808;37.078;2023-03-14T12:13:16;5.21;82.87
70214;DHT22;60138;55.808;37.078;2023-03-14T12:15:57;5.18;82.97
70214;DHT22;60138;55.808;37.078;2023-03-14T12:18:34;5.12;81.22
70214;DHT22;60138;55.808;37.078;2023-03-14T12:21:03;5.07;82.25
70214;DHT22;60138;55.808;37.078;2023-03-14T12:26:25;5.03;82.94
70214;DHT22;60138;55.808;37.078;2023-03-14T12:29:15;5.02;82.86
70214;DHT22;60138;55.808;37.078;2023-03-14T12:31:43;5.03;82.30
70214;DHT22;60138;55.808;37.078;2023-03-14T12:42:05;5.41;83.27
70214;DHT22;60138;55.808;37.078;2023-03-14T12:49:42;5.70;82.97
70214;DHT22;60138;55.808;37.078;2023-03-14T12:52:21;5.70;82.51
70214;DHT22;60138;55.808;37.078;2023-03-14T12:55:12;5.72;82.26
70214;DHT22;60138;55.808;37.078;2023-03-14T13:00:24;5.64;81.46
70214;DHT22;60138;55.808;37.078;2023-03-14T13:06:01;5.61;81.94
70214;DHT22;60138;55.808;37.078;2023-03-14T13:08:37;5.57;81.38
70214;DHT22;60138;55.808;37.078;2023-03-14T13:11:12;5.53;81.27
70214;DHT22;60138;55.808;37.078;2023-03-14T13:13:49;5.50;81.03
70214;DHT22;60138;55.808;37.078;2023-03-14T13:16:17;5.49;81.57
70214;DHT22;60138;55.808;37.078;2023-03-14T13:18:46;5.45;79.58
70214;DHT22;60138;55.808;37.078;2023-03-14T13:21:18;5.41;77.96
70214;DHT22;60138;55.808;37.078;2023-03-14T13:24:04;5.40;78.54
70214;DHT22;60138;55.808;37.078;2023-03-14T13:26:39;5.40;80.01
70214;DHT22;60138;55.808;37.078;2023-03-14T13:29:25;5.38;79.93
70214;DHT22;60138;55.808;37.078;2023-03-14T13:31:53;5.36;79.14
70214;DHT22;60138;55.808;37.078;2023-03-14T13:34:20;5.35;78.72
70214;DHT22;60138;55.808;37.078;2023-03-14T13:36:46;5.34;77.08
70214;DHT22;60138;55.808;37.078;2023-03-14T13:39:20;5.35;79.24
70214;DHT22;60138;55.808;37.078;2023-03-14T13:41:46;5.34;79.11
70214;DHT22;60138;55.808;37.078;2023-03-14T13:44:27;5.33;76.13
70214;DHT22;60138;55.808;37.078;2023-03-14T13:47:03;5.35;77.33
70214;DHT22;60138;55.808;37.078;2023-03-14T13:49:32;5.35;77.18
70214;DHT22;60138;55.808;37.078;2023-03-14T13:51:58;5.35;78.19
70214;DHT22;60138;55.808;37.078;2023-03-14T13:54:25;5.34;76.58
70214;DHT22;60138;55.808;37.078;2023-03-14T13:57:03;5.37;78.36
70214;DHT22;60138;55.808;37.078;2023-03-14T13:59:31;5.35;77.52
70214;DHT22;60138;55.808;37.078;2023-03-14T14:01:59;5.34;77.38
70214;DHT22;60138;55.808;37.078;2023-03-14T14:04:26;5.33;75.90
70214;DHT22;60138;55.808;37.078;2023-03-14T14:07:06;5.38;76.18
70214;DHT22;60138;55.808;37.078;2023-03-14T14:09:40;5.39;76.55
70214;DHT22;60138;55.808;37.078;2023-03-14T14:12:22;5.38;77.23
70214;DHT22;60138;55.808;37.078;2023-03-14T14:14:58;5.38;73.86
70214;DHT22;60138;55.808;37.078;2023-03-14T14:17:46;5.38;73.13
70214;DHT22;60138;55.808;37.078;2023-03-14T14:20:26;5.39;73.57
70214;DHT22;60138;55.808;37.078;2023-03-14T14:22:53;5.38;73.32
70214;DHT22;60138;55.808;37.078;2023-03-14T14:25:19;5.37;74.30
70214;DHT22;60138;55.808;37.078;2023-03-14T14:27:48;5.36;73.43
70214;DHT22;60138;55.808;37.078;2023-03-14T14:32:43;5.31;72.03
70214;DHT22;60138;55.808;37.078;2023-03-14T14:35:30;5.33;72.73
70214;DHT22;60138;55.808;37.078;2023-03-14T14:37:57;5.34;73.32
70214;DHT22;60138;55.808;37.078;2023-03-14T14:40:26;5.33;72.39
70214;DHT22;60138;55.808;37.078;2023-03-14T14:42:52;5.31;70.62
70214;DHT22;60138;55.808;37.078;2023-03-14T14:45:23;5.31;71.58
70214;DHT22;60138;55.808;37.078;2023-03-14T14:48:06;5.31;71.58
70214;DHT22;60138;55.808;37.078;2023-03-14T14:50:48;5.30;70.94
70214;DHT22;60138;55.808;37.078;2023-03-14T14:53:29;5.28;70.40
70214;DHT22;60138;55.808;37.078;2023-03-14T14:56:00;5.27;70.25
70214;DHT22;60138;55.808;37.078;2023-03-14T14:58:36;5.28;70.68
70214;DHT22;60138;55.808;37.078;2023-03-14T15:01:07;5.28;71.86
70214;DHT22;60138;55.808;37.078;2023-03-14T15:03:34;5.28;71.80
70214;DHT22;60138;55.808;37.078;2023-03-14T15:06:01;5.30;71.53
70214;DHT22;60138;55.808;37.078;2023-03-14T15:08:27;5.30;69.45
70214;DHT22;60138;55.808;37.078;2023-03-14T15:10:54;5.28;70.93
70214;DHT22;60138;55.808;37.078;2023-03-14T15:13:20;5.27;70.92
70214;DHT22;60138;55.808;37.078;2023-03-14T15:15:46;5.28;71.61
70214;DHT22;60138;55.808;37.078;2023-03-14T15:18:17;5.26;70.10
70214;DHT22;60138;55.808;37.078;2023-03-14T15:20:44;5.23;69.07
70214;DHT22;60138;55.808;37.078;2023-03-14T15:23:12;5.21;70.70
70214;DHT22;60138;55.808;37.078;2023-03-14T15:25:38;5.21;69.94
70214;DHT22;60138;55.808;37.078;2023-03-14T15:28:15;5.19;67.97
70214;DHT22;60138;55.808;37.078;2023-03-14T15:30:41;5.18;70.32
70214;DHT22;60138;55.808;37.078;2023-03-14T15:33:06;5.20;70.58
70214;DHT22;60138;55.808;37.078;2023-03-14T15:35:32;5.20;69.25
70214;DHT22;60138;55.808;37.078;2023-03-14T15:37:58;5.19;67.49
70214;DHT22;60138;55.808;37.078;2023-03-14T15:40:24;5.20;69.90
70214;DHT22;60138;55.808;37.078;2023-03-14T15:42:50;5.16;70.35
70214;DHT22;60138;55.808;37.078;2023-03-14T15:45:16;5.15;71.00
70214;DHT22;60138;55.808;37.078;2023-03-14T15:47:41;5.15;70.16
70214;DHT22;60138;55.808;37.078;2023-03-14T15:50:09;5.11;68.66
70214;DHT22;60138;55.808;37.078;2023-03-14T15:52:35;5.10;70.03
70214;DHT22;60138;55.808;37.078;2023-03-14T15:55:00;5.02;69.94
70214;DHT22;60138;55.808;37.078;2023-03-14T15:57:26;4.91;71.55
70214;DHT22;60138;55.808;37.078;2023-03-14T15:59:52;4.78;69.96
70214;DHT22;60138;55.808;37.078;2023-03-14T16:02:18;4.64;69.84
70214;DHT22;60138;55.808;37.078;2023-03-14T16:04:43;4.53;70.20
70214;DHT22;60138;55.808;37.078;2023-03-14T16:07:09;4.44;70.51
70214;DHT22;60138;55.808;37.078;2023-03-14T16:09:35;4.35;70.90
70214;DHT22;60138;55.808;37.078;2023-03-14T16:12:01;4.26;71.15
70214;DHT22;60138;55.808;37.078;2023-03-14T16:14:26;4.18;70.47
70214;DHT22;60138;55.808;37.078;2023-03-14T16:16:52;4.17;71.67
70214;DHT22;60138;55.808;37.078;2023-03-14T16:19:18;4.12;71.11
70214;DHT22;60138;55.808;37.078;2023-03-14T16:21:44;4.06;71.38
70214;DHT22;60138;55.808;37.078;2023-03-14T16:24:09;4.02;72.13
70214;DHT22;60138;55.808;37.078;2023-03-14T16:26:35;4.00;71.59
70214;DHT22;60138;55.808;37.078;2023-03-14T16:29:01;3.95;71.26
70214;DHT22;60138;55.808;37.078;2023-03-14T16:31:26;3.94;71.71
70214;DHT22;60138;55.808;37.078;2023-03-14T16:33:52;3.89;71.84
70214;DHT22;60138;55.808;37.078;2023-03-14T16:36:18;3.86;71.84
70214;DHT22;60138;55.808;37.078;2023-03-14T16:38:44;3.89;71.58
70214;DHT22;60138;55.808;37.078;2023-03-14T16:41:13;3.99;72.19
70214;DHT22;60138;55.808;37.078;2023-03-14T16:43:39;4.08;72.54
70214;DHT22;60138;55.808;37.078;2023-03-14T16:46:10;4.14;73.49